Time;durP1;ratioP1;P1;durP2;ratioP2;P2;SDS_P1;SDS_P2;PMS_P1;PMS_P2;Temp;Humidity;BMP_temperature;BMP_pressure;BME280_temperature;BME280_humidity;BME280_pressure;Samples;Min_cycle;Max_cycle;Signal;HPM_P1;HPM_P2
2020/12/16 00:02:14;;;;;;;;;;;;;;;17.95;67.13;101979.97;5056695;28;844;-47
2020/12/16 00:04:39;;;;;;;;;;;;;;;17.90;67.17;101988.25;5056548;28;1567;-47
2020/12/16 00:07:04;;;;;;;;;;;;;;;17.87;66.88;101989.31;5056272;28;994;-47
2020/12/16 00:09:30;;;;;;;;;;;;;;;17.87;67.57;101983.97;5056543;28;888;-46
2020/12/16 00:11:55;;;;;;;;;;;;;;;17.85;67.55;101972.50;5056030;28;1965;-47
2020/12/16 00:14:20;;;;;;;;;;;;;;;17.84;66.79;101988.66;5056137;28;991;-47
2020/12/16 00:16:45;;;;;;;;;;;;;;;17.87;67.40;102005.38;5055988;28;1601;-46
2020/12/16 00:19:11;;;;;;;;;;;;;;;17.88;66.80;102004.41;5056800;28;1614;-47
2020/12/16 00:21:36;;;;;;;;;;;;;;;17.89;66.28;102003.47;5056776;28;934;-47
2020/12/16 00:24:01;;;;;;;;;;;;;;;17.88;66.79;102006.25;5056047;28;907;-47
2020/12/16 00:26:26;;;;;;;;;;;;;;;17.89;66.71;102006.16;5056060;28;876;-47
2020/12/16 00:28:52;;;;;;;;;;;;;;;17.87;66.03;102002.72;5056315;28;865;-47
2020/12/16 00:31:17;;;;;;;;;;;;;;;17.91;66.30;102006.06;5056105;28;1488;-46
2020/12/16 00:33:42;;;;;;;;;;;;;;;17.89;65.67;102014.19;5055623;28;1941;-47
2020/12/16 00:36:07;;;;;;;;;;;;;;;17.89;65.96;102008.81;5056593;28;845;-47
2020/12/16 00:38:33;;;;;;;;;;;;;;;17.87;65.80;102007.22;5056018;28;1018;-47
2020/12/16 00:40:58;;;;;;;;;;;;;;;17.83;65.44;102009.22;5056054;28;866;-47
2020/12/16 00:43:23;;;;;;;;;;;;;;;17.80;65.66;101995.13;5055855;28;1554;-46
2020/12/16 00:45:49;;;;;;;;;;;;;;;17.80;65.58;102006.69;5055881;28;1046;-47
2020/12/16 00:48:14;;;;;;;;;;;;;;;17.75;65.62;101991.91;5055803;28;1562;-47
2020/12/16 00:50:39;;;;;;;;;;;;;;;17.73;65.29;101992.00;5055860;28;818;-46
2020/12/16 00:53:04;;;;;;;;;;;;;;;17.73;65.63;102004.53;5055271;28;1971;-47
2020/12/16 00:55:30;;;;;;;;;;;;;;;17.68;66.32;102005.66;5055747;28;856;-46
2020/12/16 00:57:55;;;;;;;;;;;;;;;17.69;66.46;102007.38;5055495;28;1586;-46
2020/12/16 01:00:32;;;;;;;;;;;;;;;17.66;66.09;102001.34;5055510;28;932;-47
2020/12/16 01:02:57;;;;;;;;;;;;;;;17.64;66.01;101996.09;5054017;28;1706;-46
2020/12/16 01:05:23;;;;;;;;;;;;;;;17.67;65.40;102011.97;5055387;28;1495;-46
2020/12/16 01:07:48;;;;;;;;;;;;;;;17.66;65.23;102002.22;5055557;28;852;-47
2020/12/16 01:10:15;;;;;;;;;;;;;;;17.62;65.26;102000.69;5055421;28;846;-46
2020/12/16 01:12:41;;;;;;;;;;;;;;;17.60;66.26;101996.41;5055162;28;1898;-47
2020/12/16 01:15:11;;;;;;;;;;;;;;;17.59;65.27;101994.69;5056269;28;877;-46
2020/12/16 01:17:40;;;;;;;;;;;;;;;17.62;64.94;101991.81;5055075;28;1543;-46
2020/12/16 01:20:06;;;;;;;;;;;;;;;17.59;65.12;101989.34;5054851;28;1626;-46
2020/12/16 01:22:32;;;;;;;;;;;;;;;17.55;65.61;101979.75;5054891;28;853;-46
2020/12/16 01:24:57;;;;;;;;;;;;;;;17.56;65.12;101984.16;5055254;28;782;-46
2020/12/16 01:27:22;;;;;;;;;;;;;;;17.56;65.65;101989.53;5054998;28;826;-46
2020/12/16 01:29:47;;;;;;;;;;;;;;;17.56;65.94;101984.16;5054695;28;1499;-46
2020/12/16 01:32:16;;;;;;;;;;;;;;;17.59;64.52;101984.00;5054945;28;1939;-46
2020/12/16 01:34:41;;;;;;;;;;;;;;;17.61;65.04;101987.44;5055218;28;782;-46
2020/12/16 01:37:07;;;;;;;;;;;;;;;17.59;64.86;101978.66;5054045;28;840;-46
2020/12/16 01:39:32;;;;;;;;;;;;;;;17.61;64.28;101982.09;5054475;28;848;-46
2020/12/16 01:41:57;;;;;;;;;;;;;;;17.62;64.86;101967.72;5054977;28;1586;-46
2020/12/16 01:44:27;;;;;;;;;;;;;;;17.64;64.97;101973.84;5054113;28;1680;-46
2020/12/16 01:46:54;;;;;;;;;;;;;;;17.61;64.43;101966.03;5054701;28;797;-46
2020/12/16 01:49:22;;;;;;;;;;;;;;;17.61;63.92;101960.69;5054213;28;1535;-46
2020/12/16 01:51:52;;;;;;;;;;;;;;;17.58;64.08;101960.88;5053891;28;1910;-46
2020/12/16 01:54:17;;;;;;;;;;;;;;;17.54;64.85;101948.63;5054159;28;991;-46
2020/12/16 01:56:44;;;;;;;;;;;;;;;17.56;64.88;101952.06;5053921;28;1586;-46
2020/12/16 01:59:15;;;;;;;;;;;;;;;17.54;64.48;101951.31;5053937;28;1500;-46
2020/12/16 02:01:41;;;;;;;;;;;;;;;17.53;64.20;101953.13;5054461;28;889;-46
2020/12/16 02:04:08;;;;;;;;;;;;;;;17.53;64.18;101952.25;5054352;28;836;-46
2020/12/16 02:06:34;;;;;;;;;;;;;;;17.49;64.31;101947.13;5054069;28;1083;-46
2020/12/16 02:09:07;;;;;;;;;;;;;;;17.47;64.78;101943.69;5053976;28;877;-46
2020/12/16 02:11:35;;;;;;;;;;;;;;;17.46;64.65;101947.28;5053537;28;1597;-46
2020/12/16 02:14:01;;;;;;;;;;;;;;;17.46;64.94;101949.97;5054201;28;1957;-46
2020/12/16 02:16:27;;;;;;;;;;;;;;;17.47;64.26;101941.00;5053925;28;1632;-46
2020/12/16 02:18:52;;;;;;;;;;;;;;;17.46;63.69;101936.59;5054018;28;954;-46
2020/12/16 02:21:18;;;;;;;;;;;;;;;17.43;64.95;101933.28;5053921;28;1519;-46
2020/12/16 02:23:44;;;;;;;;;;;;;;;17.28;66.75;101943.97;5054051;28;850;-46
2020/12/16 02:26:10;;;;;;;;;;;;;;;17.21;67.42;101947.09;5054044;28;837;-46
2020/12/16 02:28:35;;;;;;;;;;;;;;;17.14;68.01;101945.78;5053749;28;1543;-46
2020/12/16 02:31:01;;;;;;;;;;;;;;;17.07;68.02;101934.63;5053635;28;844;-46
2020/12/16 02:33:26;;;;;;;;;;;;;;;17.06;67.92;101944.44;5053550;28;1894;-46
2020/12/16 02:35:51;;;;;;;;;;;;;;;17.03;68.74;101947.31;5053765;28;1657;-46
2020/12/16 02:38:17;;;;;;;;;;;;;;;17.02;67.96;101945.56;5053563;28;805;-46
2020/12/16 02:40:42;;;;;;;;;;;;;;;16.93;68.05;101942.59;5053476;28;959;-46
2020/12/16 02:43:07;;;;;;;;;;;;;;;16.93;69.08;101940.81;5053322;28;1500;-46
2020/12/16 02:45:32;;;;;;;;;;;;;;;16.94;69.13;101945.19;5053118;28;1480;-47
2020/12/16 02:47:57;;;;;;;;;;;;;;;16.90;68.83;101940.97;5053590;28;782;-46
2020/12/16 02:50:23;;;;;;;;;;;;;;;16.89;68.71;101936.56;5053412;28;853;-46
2020/12/16 02:52:48;;;;;;;;;;;;;;;16.94;69.20;101950.53;5053162;28;2035;-46
2020/12/16 02:55:13;;;;;;;;;;;;;;;16.92;68.74;101955.09;5053303;28;1451;-46
2020/12/16 02:57:38;;;;;;;;;;;;;;;16.90;69.02;101952.53;5053034;28;1599;-46
2020/12/16 03:00:04;;;;;;;;;;;;;;;16.92;69.35;101935.56;5053225;28;1633;-46
2020/12/16 03:02:29;;;;;;;;;;;;;;;16.86;68.65;101948.31;5053614;28;865;-46
2020/12/16 03:04:54;;;;;;;;;;;;;;;16.86;69.54;101937.63;5054095;28;853;-46
2020/12/16 03:07:19;;;;;;;;;;;;;;;16.90;69.22;101935.63;5054187;28;834;-46
2020/12/16 03:09:45;;;;;;;;;;;;;;;16.88;68.93;101940.22;5053260;28;862;-46
2020/12/16 03:12:11;;;;;;;;;;;;;;;16.86;69.68;101934.97;5052799;28;1901;-46
2020/12/16 03:14:36;;;;;;;;;;;;;;;16.91;68.93;101950.72;5053487;28;882;-46
2020/12/16 03:17:01;;;;;;;;;;;;;;;16.88;70.14;101940.22;5053155;28;1725;-46
2020/12/16 03:19:27;;;;;;;;;;;;;;;16.86;69.09;101953.66;5053307;28;1488;-47
2020/12/16 03:21:53;;;;;;;;;;;;;;;16.86;70.22;101950.13;5053415;28;850;-46
2020/12/16 03:24:18;;;;;;;;;;;;;;;16.85;69.52;101951.06;5053093;28;899;-46
2020/12/16 03:26:43;;;;;;;;;;;;;;;16.83;69.82;101940.50;5053117;28;1496;-47
2020/12/16 03:29:09;;;;;;;;;;;;;;;16.85;70.02;101951.97;5054072;28;789;-46
2020/12/16 03:31:34;;;;;;;;;;;;;;;16.83;69.19;101948.53;5053377;28;1558;-46
2020/12/16 03:33:59;;;;;;;;;;;;;;;16.82;70.20;101946.78;5053007;28;1931;-47
2020/12/16 03:36:25;;;;;;;;;;;;;;;16.81;70.48;101950.44;5053329;28;860;-47
2020/12/16 03:38:50;;;;;;;;;;;;;;;16.79;69.55;101962.09;5053274;28;1045;-46
2020/12/16 03:41:16;;;;;;;;;;;;;;;16.79;69.70;101951.41;5053038;28;1755;-46
2020/12/16 03:43:45;;;;;;;;;;;;;;;16.81;70.41;101957.53;5053184;28;846;-46
2020/12/16 03:46:10;;;;;;;;;;;;;;;16.77;69.80;101962.22;5053227;28;802;-46
2020/12/16 03:48:36;;;;;;;;;;;;;;;16.72;70.31;101955.44;5053174;28;903;-47
2020/12/16 03:51:09;;;;;;;;;;;;;;;16.69;70.93;101946.66;5052836;28;853;-46
2020/12/16 03:53:35;;;;;;;;;;;;;;;16.72;70.53;101958.09;5052520;28;1976;-46
2020/12/16 03:56:07;;;;;;;;;;;;;;;16.67;69.94;101956.56;5052913;28;1728;-46
2020/12/16 03:58:32;;;;;;;;;;;;;;;16.72;69.63;101966.97;5053117;28;872;-46
2020/12/16 04:00:58;;;;;;;;;;;;;;;16.71;69.77;101965.22;5055692;28;790;-46
2020/12/16 04:03:23;;;;;;;;;;;;;;;16.70;69.85;101969.72;5056695;28;816;-46
2020/12/16 04:05:48;;;;;;;;;;;;;;;16.69;70.20;101962.66;5056185;28;1676;-46
2020/12/16 04:08:13;;;;;;;;;;;;;;;16.65;70.05;101966.47;5056320;28;926;-46
2020/12/16 04:10:38;;;;;;;;;;;;;;;16.66;70.57;101972.66;5056305;28;1696;-46
2020/12/16 04:13:04;;;;;;;;;;;;;;;16.64;70.47;101954.06;5056258;28;1947;-47
2020/12/16 04:15:29;;;;;;;;;;;;;;;16.66;71.16;101967.31;5056466;28;942;-46
2020/12/16 04:17:54;;;;;;;;;;;;;;;16.65;70.28;101971.81;5056368;28;848;-46
2020/12/16 04:20:19;;;;;;;;;;;;;;;16.69;70.90;101968.00;5056343;28;1721;-46
2020/12/16 04:22:45;;;;;;;;;;;;;;;16.69;71.48;101964.47;5056311;28;1062;-46
2020/12/16 04:25:10;;;;;;;;;;;;;;;16.67;71.87;101959.22;5055777;28;1519;-46
2020/12/16 04:27:35;;;;;;;;;;;;;;;16.69;70.63;101970.69;5055982;28;888;-46
2020/12/16 04:30:01;;;;;;;;;;;;;;;16.68;71.07;101973.44;5055858;28;848;-46
2020/12/16 04:32:26;;;;;;;;;;;;;;;16.67;71.62;101985.06;5056052;28;1937;-46
2020/12/16 04:34:52;;;;;;;;;;;;;;;16.69;72.00;101988.50;5056052;28;892;-46
2020/12/16 04:37:18;;;;;;;;;;;;;;;16.68;70.72;101992.13;5056151;28;1722;-46
2020/12/16 04:39:43;;;;;;;;;;;;;;;16.68;71.86;101989.47;5055857;28;1500;-46
2020/12/16 04:42:08;;;;;;;;;;;;;;;16.66;70.72;101984.19;5055911;28;837;-47
2020/12/16 04:44:35;;;;;;;;;;;;;;;16.63;70.61;101987.06;5055692;28;860;-46
2020/12/16 04:47:00;;;;;;;;;;;;;;;16.64;71.45;101985.25;5055310;28;1504;-46
2020/12/16 04:49:25;;;;;;;;;;;;;;;16.69;70.84;101999.19;5055870;28;796;-46
2020/12/16 04:51:51;;;;;;;;;;;;;;;16.60;71.80;101981.91;5055127;28;1909;-46
2020/12/16 04:54:16;;;;;;;;;;;;;;;16.58;71.11;102001.63;5055330;28;1571;-46
2020/12/16 04:56:43;;;;;;;;;;;;;;;16.57;71.76;102008.75;5055750;28;805;-46
2020/12/16 04:59:09;;;;;;;;;;;;;;;16.57;70.87;102013.25;5055683;28;865;-46
2020/12/16 05:01:41;;;;;;;;;;;;;;;16.55;70.74;102002.66;5055331;28;1523;-46
2020/12/16 05:04:06;;;;;;;;;;;;;;;16.57;71.75;101998.09;5055582;28;832;-46
2020/12/16 05:06:32;;;;;;;;;;;;;;;16.57;71.66;102000.75;5055553;28;816;-46
2020/12/16 05:09:02;;;;;;;;;;;;;;;16.57;71.54;102002.56;5055663;28;1551;-46
2020/12/16 05:11:32;;;;;;;;;;;;;;;16.63;72.96;102007.56;5055016;28;1423;-46
2020/12/16 05:14:10;;;;;;;;;;;;;;;16.59;72.53;102001.56;5054944;28;1910;-46
2020/12/16 05:16:51;;;;;;;;;;;;;;;16.59;72.98;102008.69;5054508;28;1569;-47
2020/12/16 05:19:31;;;;;;;;;;;;;;;16.58;73.47;102001.63;5054952;28;1468;-46
2020/12/16 05:22:15;;;;;;;;;;;;;;;16.55;73.80;101997.31;5054859;28;857;-46
2020/12/16 05:24:41;;;;;;;;;;;;;;;16.59;73.39;102008.69;5055081;28;1583;-46
2020/12/16 05:27:13;;;;;;;;;;;;;;;16.60;73.46;102007.75;5054883;28;908;-46
2020/12/16 05:29:38;;;;;;;;;;;;;;;16.59;74.17;101998.88;5055003;28;872;-46
2020/12/16 05:32:17;;;;;;;;;;;;;;;16.56;73.16;102007.06;5054972;28;1881;-46
2020/12/16 05:34:42;;;;;;;;;;;;;;;16.57;73.25;102008.75;5054981;28;841;-46
2020/12/16 05:37:28;;;;;;;;;;;;;;;16.53;72.84;102014.38;5054609;28;809;-46
2020/12/16 05:39:54;;;;;;;;;;;;;;;16.58;72.76;102018.50;5048105;28;1758;-46
2020/12/16 05:42:19;;;;;;;;;;;;;;;16.58;72.70;102023.00;5054466;28;830;-46
2020/12/16 05:44:45;;;;;;;;;;;;;;;16.58;73.26;102017.66;5054724;28;798;-46
2020/12/16 05:47:10;;;;;;;;;;;;;;;16.52;73.11;102018.03;5054460;28;861;-46
2020/12/16 05:49:35;;;;;;;;;;;;;;;16.53;72.45;102025.06;5054537;28;1511;-46
2020/12/16 05:52:05;;;;;;;;;;;;;;;16.55;73.59;102029.34;5053845;28;1902;-47
2020/12/16 05:54:32;;;;;;;;;;;;;;;16.51;72.39;102027.81;5054164;28;879;-46
2020/12/16 05:57:10;;;;;;;;;;;;;;;16.48;72.46;102039.53;5054547;28;882;-46
2020/12/16 05:59:35;;;;;;;;;;;;;;;16.44;72.63;102021.13;5054503;28;781;-46
2020/12/16 06:02:02;;;;;;;;;;;;;;;16.48;72.67;102039.53;5053836;28;1578;-47
2020/12/16 06:04:28;;;;;;;;;;;;;;;16.45;72.85;102046.88;5054098;28;1010;-46
2020/12/16 06:06:53;;;;;;;;;;;;;;;16.47;72.29;102044.97;5053906;28;1440;-47
2020/12/16 06:09:19;;;;;;;;;;;;;;;16.46;72.30;102041.44;5054315;28;822;-46
2020/12/16 06:11:52;;;;;;;;;;;;;;;16.45;72.43;102050.41;5053813;28;1604;-46
2020/12/16 06:14:20;;;;;;;;;;;;;;;16.45;72.22;102061.09;5053904;28;1770;-46
2020/12/16 06:16:47;;;;;;;;;;;;;;;16.47;72.57;102047.63;5054137;28;850;-46
2020/12/16 06:19:22;;;;;;;;;;;;;;;16.47;72.33;102060.97;5053983;28;1519;-46
2020/12/16 06:21:54;;;;;;;;;;;;;;;16.45;73.41;102054.88;5053851;28;1552;-46
2020/12/16 06:24:22;;;;;;;;;;;;;;;16.47;72.11;102063.66;5053402;28;888;-46
2020/12/16 06:26:51;;;;;;;;;;;;;;;16.43;72.77;102056.78;5054072;28;866;-46
2020/12/16 06:29:17;;;;;;;;;;;;;;;16.45;72.01;102058.44;5053512;28;1511;-46
2020/12/16 06:31:43;;;;;;;;;;;;;;;16.43;72.25;102078.13;5053943;28;1563;-46
2020/12/16 06:34:15;;;;;;;;;;;;;;;16.41;73.11;102070.22;5053567;28;1893;-47
2020/12/16 06:36:41;;;;;;;;;;;;;;;16.40;72.76;102076.50;5053642;28;1738;-46
2020/12/16 06:39:21;;;;;;;;;;;;;;;16.37;72.42;102073.13;5053885;28;894;-46
2020/12/16 06:41:55;;;;;;;;;;;;;;;16.37;72.20;102081.16;5053467;28;913;-46
2020/12/16 06:44:21;;;;;;;;;;;;;;;16.37;72.77;102078.47;5053464;28;895;-46
2020/12/16 06:46:47;;;;;;;;;;;;;;;16.37;71.97;102078.47;5053752;28;864;-46
2020/12/16 06:49:22;;;;;;;;;;;;;;;16.37;72.53;102078.47;5053480;28;1570;-46
2020/12/16 06:51:47;;;;;;;;;;;;;;;16.37;72.48;102070.47;5052868;28;1524;-46
2020/12/16 06:54:14;;;;;;;;;;;;;;;16.38;72.62;102080.22;5053067;28;1914;-46
2020/12/16 06:56:40;;;;;;;;;;;;;;;16.40;72.09;102083.66;5053685;28;881;-46
2020/12/16 06:59:05;;;;;;;;;;;;;;;16.37;71.79;102076.66;5053220;28;1562;-46
2020/12/16 07:01:30;;;;;;;;;;;;;;;16.38;72.08;102091.75;5053448;28;1501;-47
2020/12/16 07:03:56;;;;;;;;;;;;;;;16.34;72.67;102084.00;5053613;28;830;-46
2020/12/16 07:06:27;;;;;;;;;;;;;;;16.35;71.98;102102.59;5053357;28;1602;-46
2020/12/16 07:09:33;;;;;;;;;;;;;;;16.41;71.93;102082.69;5073946;27;10722;-45
2020/12/16 07:11:59;;;;;;;;;;;;;;;16.49;72.89;102093.78;5029986;28;10711;-47
2020/12/16 07:14:34;;;;;;;;;;;;;;;16.48;72.78;102087.59;5029744;28;1760;-46
2020/12/16 07:17:06;;;;;;;;;;;;;;;16.54;72.91;102090.88;5030779;28;1261;-47
2020/12/16 07:19:31;;;;;;;;;;;;;;;16.53;72.67;102108.69;5030713;28;1742;-46
2020/12/16 07:21:56;;;;;;;;;;;;;;;16.47;73.13;102101.91;5031154;28;838;-46
2020/12/16 07:24:23;;;;;;;;;;;;;;;16.44;71.92;102102.06;4350828;28;10000885;-47
2020/12/16 07:26:53;;;;;;;;;;;;;;;16.39;72.28;102103.28;5051864;28;1961;-46
2020/12/16 07:29:29;;;;;;;;;;;;;;;16.37;72.43;102100.69;5049003;28;1926;-51
2020/12/16 07:31:57;;;;;;;;;;;;;;;16.37;72.75;102123.84;5059303;28;1401;-47
2020/12/16 07:34:22;;;;;;;;;;;;;;;16.41;72.95;102106.72;5055018;28;1626;-47
2020/12/16 07:36:54;;;;;;;;;;;;;;;16.44;73.46;102101.22;5056807;28;1861;-47
2020/12/16 07:39:20;;;;;;;;;;;;;;;16.48;73.64;102110.78;5057324;28;1634;-47
2020/12/16 07:41:45;;;;;;;;;;;;;;;16.48;73.27;102108.97;5053782;28;1463;-47
2020/12/16 07:44:10;;;;;;;;;;;;;;;16.57;72.71;102110.25;5058782;28;1521;-48
2020/12/16 07:46:36;;;;;;;;;;;;;;;16.63;73.44;102123.28;5052622;28;1244;-46
2020/12/16 07:49:01;;;;;;;;;;;;;;;16.52;73.36;102124.84;5055507;28;2146;-46
2020/12/16 07:51:26;;;;;;;;;;;;;;;16.48;74.01;102118.78;5051732;28;1880;-47
2020/12/16 07:53:52;;;;;;;;;;;;;;;16.40;72.89;102115.69;5050807;28;1664;-46
2020/12/16 07:56:18;;;;;;;;;;;;;;;16.31;73.28;102117.03;5030479;28;1635;-47
2020/12/16 07:58:43;;;;;;;;;;;;;;;16.28;72.96;102112.75;5013666;28;1927;-48
2020/12/16 08:01:11;;;;;;;;;;;;;;;16.45;73.70;102124.28;5028369;28;1671;-45
2020/12/16 08:03:37;;;;;;;;;;;;;;;16.48;73.23;102105.44;5025805;28;1467;-46
2020/12/16 08:06:05;;;;;;;;;;;;;;;16.63;73.50;102117.06;5029266;28;1678;-47
2020/12/16 08:08:31;;;;;;;;;;;;;;;16.67;73.82;102111.47;5028764;28;1918;-47
2020/12/16 08:10:57;;;;;;;;;;;;;;;16.67;72.73;102124.81;5029308;28;1368;-46
2020/12/16 08:13:22;;;;;;;;;;;;;;;16.67;73.41;102121.28;5029792;28;1334;-46
2020/12/16 08:15:48;;;;;;;;;;;;;;;16.62;73.15;102129.56;5029487;28;1407;-46
2020/12/16 08:18:19;;;;;;;;;;;;;;;16.57;72.88;102115.59;5029734;28;1484;-46
2020/12/16 08:20:45;;;;;;;;;;;;;;;16.59;72.29;102124.41;5013771;28;1540;-46
2020/12/16 08:23:14;;;;;;;;;;;;;;;16.66;72.92;102119.56;5016043;28;1612;-46
2020/12/16 08:25:40;;;;;;;;;;;;;;;16.70;73.65;102118.44;5016117;28;1667;-46
2020/12/16 08:28:06;;;;;;;;;;;;;;;16.70;72.90;102124.63;5021036;28;1906;-46
2020/12/16 08:30:31;;;;;;;;;;;;;;;16.65;72.78;102124.06;5027639;28;1576;-46
2020/12/16 08:33:01;;;;;;;;;;;;;;;16.62;72.63;102123.34;5030068;28;1516;-46
2020/12/16 08:35:27;;;;;;;;;;;;;;;16.62;71.90;102123.34;5016572;28;857;-46
2020/12/16 08:37:54;;;;;;;;;;;;;;;16.67;72.61;102118.59;5016176;28;1725;-46
2020/12/16 08:40:19;;;;;;;;;;;;;;;16.66;72.62;102123.09;5016198;28;1508;-46
2020/12/16 08:42:45;;;;;;;;;;;;;;;16.67;72.43;102126.63;5015823;28;1442;-46
2020/12/16 08:45:10;;;;;;;;;;;;;;;16.63;71.84;102123.28;5016268;28;1447;-46
2020/12/16 08:47:36;;;;;;;;;;;;;;;16.64;71.79;102124.13;5013973;28;1919;-47
2020/12/16 08:50:03;;;;;;;;;;;;;;;16.61;72.23;102102.94;5015766;28;921;-46
2020/12/16 08:52:37;;;;;;;;;;;;;;;16.59;71.93;102100.38;5015937;28;932;-46
2020/12/16 08:55:31;;;;;;;;;;;;;;;16.60;73.35;102107.41;5015894;28;1452;-47
2020/12/16 08:58:01;;;;;;;;;;;;;;;16.57;72.05;102091.56;5010924;28;1564;-46
2020/12/16 09:00:30;;;;;;;;;;;;;;;16.72;71.72;102099.66;5015914;28;1731;-46
2020/12/16 09:03:01;;;;;;;;;;;;;;;16.92;71.96;102102.06;5015599;28;1701;-47
2020/12/16 09:05:28;;;;;;;;;;;;;;;17.07;72.48;102100.31;5015474;28;1738;-46
2020/12/16 09:08:02;;;;;;;;;;;;;;;17.19;72.10;102104.06;5015558;28;1973;-46
2020/12/16 09:10:27;;;;;;;;;;;;;;;17.29;71.22;102091.88;5010622;28;1333;-46
2020/12/16 09:12:53;;;;;;;;;;;;;;;17.33;70.58;102090.75;5011938;28;1841;-47
2020/12/16 09:15:18;;;;;;;;;;;;;;;17.46;70.48;102090.84;5015399;28;1677;-46
2020/12/16 09:17:44;;;;;;;;;;;;;;;17.59;70.22;102091.00;5014959;28;1253;-46
2020/12/16 09:20:12;;;;;;;;;;;;;;;17.68;69.92;102085.06;5015659;28;1696;-46
2020/12/16 09:22:37;;;;;;;;;;;;;;;17.81;70.26;102086.03;5015675;28;798;-46
2020/12/16 09:25:02;;;;;;;;;;;;;;;17.91;69.43;102078.31;5014492;28;1568;-47
2020/12/16 09:27:28;;;;;;;;;;;;;;;18.06;69.82;102073.78;5014274;28;1963;-46
2020/12/16 09:29:53;;;;;;;;;;;;;;;18.12;68.74;102073.41;4655937;28;10000002;-48
2020/12/16 09:32:19;;;;;;;;;;;;;;;18.19;69.45;102071.22;5001316;28;1636;-47
2020/12/16 09:34:46;;;;;;;;;;;;;;;18.17;68.68;102068.63;5005695;28;1648;-47
2020/12/16 09:37:14;;;;;;;;;;;;;;;18.22;69.02;102069.19;5005026;28;1959;-47
2020/12/16 09:39:39;;;;;;;;;;;;;;;18.27;69.24;102076.94;5005098;28;1591;-47
2020/12/16 09:42:09;;;;;;;;;;;;;;;18.31;68.74;102070.41;5006374;28;1482;-48
2020/12/16 09:44:34;;;;;;;;;;;;;;;18.45;68.66;102077.56;5008246;28;1596;-48
2020/12/16 09:47:10;;;;;;;;;;;;;;;18.43;68.63;102066.94;5006290;28;1593;-47
2020/12/16 09:49:35;;;;;;;;;;;;;;;18.46;68.85;102057.81;5008024;28;1890;-48
2020/12/16 09:52:01;;;;;;;;;;;;;;;18.46;68.84;102069.44;5006859;28;1647;-47
2020/12/16 09:54:27;;;;;;;;;;;;;;;18.48;69.13;102061.25;5004003;28;1519;-47
2020/12/16 09:56:53;;;;;;;;;;;;;;;18.47;69.10;102062.25;5006991;28;1532;-47
2020/12/16 09:59:19;;;;;;;;;;;;;;;18.49;68.75;102077.25;5005889;28;1640;-47
2020/12/16 10:01:44;;;;;;;;;;;;;;;18.46;68.80;102065.88;5000103;28;1527;-48
2020/12/16 10:04:09;;;;;;;;;;;;;;;18.42;69.16;102059.88;5006486;28;1584;-47
2020/12/16 10:06:34;;;;;;;;;;;;;;;18.38;68.59;102057.47;5004539;28;1631;-48
2020/12/16 10:09:00;;;;;;;;;;;;;;;18.38;69.48;102058.34;5003414;28;1934;-48
2020/12/16 10:11:25;;;;;;;;;;;;;;;18.35;68.92;102042.47;5004382;28;1604;-47
2020/12/16 10:13:50;;;;;;;;;;;;;;;18.31;69.39;102040.97;5007416;28;1732;-47
2020/12/16 10:16:15;;;;;;;;;;;;;;;18.27;69.59;102036.75;5007505;28;1574;-48
2020/12/16 10:18:40;;;;;;;;;;;;;;;18.20;69.58;102028.25;5002017;28;1493;-47
2020/12/16 10:21:06;;;;;;;;;;;;;;;18.21;69.52;102039.84;5007511;28;1582;-47
2020/12/16 10:23:32;;;;;;;;;;;;;;;18.15;69.79;102026.84;5008250;28;1409;-48
2020/12/16 10:25:57;;;;;;;;;;;;;;;18.17;69.21;102023.09;5006703;28;1673;-49
2020/12/16 10:28:22;;;;;;;;;;;;;;;18.23;68.63;102033.41;5006778;28;2272;-47
2020/12/16 10:30:52;;;;;;;;;;;;;;;18.22;68.49;102023.69;5008626;28;1939;-47
2020/12/16 10:33:19;;;;;;;;;;;;;;;18.16;68.77;102032.09;5006591;28;1983;-47
2020/12/16 10:35:44;;;;;;;;;;;;;;;18.18;68.23;102030.16;5008715;28;1778;-46
2020/12/16 10:38:10;;;;;;;;;;;;;;;18.13;69.59;102018.06;5001940;28;1761;-47
2020/12/16 10:40:35;;;;;;;;;;;;;;;18.14;68.67;102017.94;5004300;28;1643;-47
2020/12/16 10:43:04;;;;;;;;;;;;;;;18.14;69.09;102023.28;5007588;28;1631;-47
2020/12/16 10:45:30;;;;;;;;;;;;;;;18.12;68.57;102013.66;4999687;28;1692;-47
2020/12/16 10:47:59;;;;;;;;;;;;;;;18.08;68.91;102010.31;5005161;28;1893;-48
2020/12/16 10:50:32;;;;;;;;;;;;;;;18.04;69.29;102006.13;5003509;28;1693;-47
2020/12/16 10:52:57;;;;;;;;;;;;;;;18.06;69.96;102004.19;5005168;28;1522;-47
2020/12/16 10:55:23;;;;;;;;;;;;;;;18.05;69.87;102007.84;5005065;28;1951;-47
2020/12/16 10:57:48;;;;;;;;;;;;;;;18.02;69.33;101997.31;5007681;28;1212;-48
2020/12/16 11:00:13;;;;;;;;;;;;;;;18.10;69.47;102011.06;5005697;28;1738;-46
2020/12/16 11:02:39;;;;;;;;;;;;;;;18.18;69.28;101999.88;5006534;28;1699;-47
2020/12/16 11:05:04;;;;;;;;;;;;;;;18.18;69.19;102003.38;5005971;28;1479;-47
2020/12/16 11:07:29;;;;;;;;;;;;;;;18.24;69.19;101992.31;5005047;28;1910;-47
2020/12/16 11:09:54;;;;;;;;;;;;;;;18.16;69.40;101997.28;5005286;28;1403;-47
2020/12/16 11:12:20;;;;;;;;;;;;;;;18.00;69.51;101996.56;5006226;28;1722;-46
2020/12/16 11:14:45;;;;;;;;;;;;;;;17.95;70.07;101999.53;5005504;28;1850;-47
2020/12/16 11:17:10;;;;;;;;;;;;;;;17.92;70.71;101985.50;5006236;28;1472;-47
2020/12/16 11:19:35;;;;;;;;;;;;;;;17.85;71.08;101980.53;5001091;28;1980;-47
2020/12/16 11:22:01;;;;;;;;;;;;;;;17.84;70.01;101992.19;5002458;28;1614;-47
2020/12/16 11:24:27;;;;;;;;;;;;;;;17.84;70.25;101989.50;5005486;28;1886;-47
2020/12/16 11:26:53;;;;;;;;;;;;;;;17.85;70.30;101991.25;5002918;28;1738;-47
2020/12/16 11:29:21;;;;;;;;;;;;;;;17.91;70.15;101994.50;5004018;28;2281;-47
2020/12/16 11:31:47;;;;;;;;;;;;;;;17.95;70.78;101988.84;5004483;28;1699;-47
2020/12/16 11:34:18;;;;;;;;;;;;;;;17.96;70.40;101974.47;5007200;28;1429;-47
2020/12/16 11:36:44;;;;;;;;;;;;;;;18.01;69.57;101972.38;5004133;28;1573;-47
2020/12/16 11:39:10;;;;;;;;;;;;;;;18.05;69.59;101967.69;5003998;28;1691;-46
2020/12/16 11:41:36;;;;;;;;;;;;;;;18.11;69.60;101977.16;5002412;28;1554;-47
2020/12/16 11:44:02;;;;;;;;;;;;;;;18.14;68.98;101975.09;5004405;28;1600;-48
2020/12/16 11:46:28;;;;;;;;;;;;;;;18.15;69.00;101960.78;5001340;28;1496;-47
2020/12/16 11:48:54;;;;;;;;;;;;;;;18.23;68.90;101974.50;5006040;28;1890;-47
2020/12/16 11:51:20;;;;;;;;;;;;;;;18.27;69.13;101965.31;5000418;28;1341;-47
2020/12/16 11:53:45;;;;;;;;;;;;;;;18.35;68.77;101963.97;4998583;28;1677;-47
2020/12/16 11:56:10;;;;;;;;;;;;;;;18.33;69.12;101963.22;5006049;28;1862;-47
2020/12/16 11:58:35;;;;;;;;;;;;;;;18.35;68.52;101964.81;5005796;28;1624;-47
2020/12/16 12:01:00;;;;;;;;;;;;;;;18.35;68.44;101961.28;5010852;28;1625;-48
2020/12/16 12:03:26;;;;;;;;;;;;;;;18.37;69.04;101975.44;5007808;28;1716;-48
2020/12/16 12:05:51;;;;;;;;;;;;;;;18.37;68.46;101968.25;5007994;28;1710;-47
2020/12/16 12:08:16;;;;;;;;;;;;;;;18.37;68.93;101962.03;5007566;28;1977;-47
2020/12/16 12:10:41;;;;;;;;;;;;;;;18.33;68.52;101969.41;5006030;28;1474;-47
2020/12/16 12:13:07;;;;;;;;;;;;;;;18.33;68.63;101966.72;5010944;28;1483;-47
2020/12/16 12:15:33;;;;;;;;;;;;;;;18.33;68.56;101968.56;5007419;28;1876;-47
2020/12/16 12:17:58;;;;;;;;;;;;;;;18.29;69.02;101973.25;5007809;28;1562;-47
2020/12/16 12:20:24;;;;;;;;;;;;;;;18.24;68.75;101960.19;5004818;28;1573;-48
2020/12/16 12:22:49;;;;;;;;;;;;;;;18.22;68.67;101970.13;5006009;28;1555;-47
2020/12/16 12:25:14;;;;;;;;;;;;;;;18.23;68.61;101971.84;5008880;28;1675;-48
2020/12/16 12:27:39;;;;;;;;;;;;;;;18.20;68.52;101958.63;5009859;28;1971;-48
2020/12/16 12:30:05;;;;;;;;;;;;;;;18.23;68.70;101977.19;5004620;28;2993;-49
2020/12/16 12:32:30;;;;;;;;;;;;;;;18.23;69.12;101970.97;5007104;28;1503;-47
2020/12/16 12:34:55;;;;;;;;;;;;;;;18.17;68.36;101952.66;5010425;28;1598;-48
2020/12/16 12:37:21;;;;;;;;;;;;;;;18.20;69.16;101964.00;5011653;28;1614;-46
2020/12/16 12:39:46;;;;;;;;;;;;;;;18.16;69.34;101967.81;5016415;28;826;-46
2020/12/16 12:42:11;;;;;;;;;;;;;;;18.13;68.88;101968.06;5014542;28;1453;-47
2020/12/16 12:44:37;;;;;;;;;;;;;;;18.11;68.86;101975.31;5016083;28;1762;-47
2020/12/16 12:47:02;;;;;;;;;;;;;;;18.13;68.65;101957.34;5016254;28;1588;-46
2020/12/16 12:49:27;;;;;;;;;;;;;;;18.13;69.03;101976.09;5015843;28;1890;-47